createdAt,value
2023-03-06T00:00:57.790Z,60.76
2023-03-06T00:03:28.106Z,58.35
2023-03-06T00:05:58.755Z,57.92
2023-03-06T00:08:27.352Z,58.24
2023-03-06T00:10:59.185Z,58.35
2023-03-06T00:13:30.241Z,58.73
2023-03-06T00:16:00.482Z,59.13
2023-03-06T00:18:32.893Z,59.51
2023-03-06T00:21:10.136Z,60.00
2023-03-06T00:23:37.316Z,60.15
2023-03-06T00:26:08.240Z,60.11
2023-03-06T00:28:38.739Z,60.53
2023-03-06T00:31:15.911Z,61.19
2023-03-06T00:33:45.502Z,60.88
2023-03-06T00:36:12.917Z,58.79
2023-03-06T00:38:41.424Z,57.54
2023-03-06T00:41:12.374Z,57.64
2023-03-06T00:43:40.611Z,57.76
2023-03-06T00:46:08.485Z,57.91
2023-03-06T00:48:35.780Z,58.31
2023-03-06T00:51:12.812Z,58.26
2023-03-06T00:53:41.885Z,58.69
2023-03-06T00:56:09.223Z,59.31
2023-03-06T00:58:38.548Z,59.60
2023-03-06T01:01:09.147Z,59.74
2023-03-06T01:03:37.837Z,60.01
2023-03-06T01:06:07.043Z,60.39
2023-03-06T01:08:37.134Z,60.24
2023-03-06T01:11:05.532Z,58.64
2023-03-06T01:13:32.808Z,58.04
2023-03-06T01:16:18.766Z,57.43
2023-03-06T01:18:48.447Z,57.80
2023-03-06T01:21:16.385Z,58.28
2023-03-06T01:23:47.480Z,58.40
2023-03-06T01:26:15.532Z,58.84
2023-03-06T01:28:47.478Z,59.44
2023-03-06T01:31:20.293Z,59.74
2023-03-06T01:33:47.636Z,60.08
2023-03-06T01:36:23.611Z,60.11
2023-03-06T01:38:51.896Z,60.11
2023-03-06T01:41:21.239Z,60.70
2023-03-06T01:43:54.499Z,60.61
2023-03-06T01:46:53.995Z,59.14
2023-03-06T01:49:26.742Z,58.31
2023-03-06T01:52:09.615Z,57.81
2023-03-06T01:54:44.967Z,58.13
2023-03-06T01:57:22.180Z,58.55
2023-03-06T01:59:53.193Z,58.95
2023-03-06T02:02:23.962Z,59.35
2023-03-06T02:04:53.794Z,59.81
2023-03-06T02:07:21.382Z,59.91
2023-03-06T02:09:54.658Z,60.45
2023-03-06T02:12:34.786Z,60.29
2023-03-06T02:15:02.190Z,60.84
2023-03-06T02:17:35.493Z,60.66
2023-03-06T02:20:17.390Z,59.35
2023-03-06T02:22:52.986Z,57.90
2023-03-06T02:25:23.357Z,57.87
2023-03-06T02:27:56.603Z,57.91
2023-03-06T02:30:25.968Z,58.20
2023-03-06T02:32:53.808Z,58.83
2023-03-06T02:35:30.571Z,59.14
2023-03-06T02:37:59.519Z,59.36
2023-03-06T02:40:31.246Z,59.66
2023-03-06T02:42:58.885Z,59.76
2023-03-06T02:45:37.174Z,59.81
2023-03-06T02:48:15.748Z,60.28
2023-03-06T02:50:46.765Z,60.40
2023-03-06T02:53:19.009Z,60.43
2023-03-06T02:55:49.237Z,58.81
2023-03-06T02:58:21.290Z,58.07
2023-03-06T03:00:54.642Z,57.75
2023-03-06T03:03:22.465Z,57.79
2023-03-06T03:05:52.183Z,58.19
2023-03-06T03:08:25.795Z,58.50
2023-03-06T03:10:56.588Z,58.71
2023-03-06T03:13:26.651Z,59.20
2023-03-06T03:16:05.510Z,59.38
2023-03-06T03:18:34.016Z,59.63
2023-03-06T03:21:05.915Z,60.10
2023-03-06T03:23:33.395Z,60.26
2023-03-06T03:26:26.925Z,60.81
2023-03-06T03:28:59.596Z,60.06
2023-03-06T03:31:27.891Z,58.55
2023-03-06T03:33:55.582Z,58.07
2023-03-06T03:36:27.603Z,57.77
2023-03-06T03:38:55.476Z,57.97
2023-03-06T03:41:23.964Z,58.10
2023-03-06T03:43:51.676Z,58.40
2023-03-06T03:46:21.532Z,59.02
2023-03-06T03:49:09.761Z,59.16
2023-03-06T03:51:43.805Z,59.51
2023-03-06T03:54:12.088Z,59.95
2023-03-06T03:56:45.129Z,60.17
2023-03-06T03:59:32.956Z,60.41
2023-03-06T04:02:14.994Z,60.43
2023-03-06T04:05:00.254Z,60.93
2023-03-06T04:08:33.220Z,60.92
2023-03-06T04:12:32.396Z,59.53
2023-03-06T04:15:48.668Z,58.30
2023-03-06T04:18:24.849Z,57.95
2023-03-06T04:24:03.429Z,60.32
2023-03-06T04:26:33.928Z,59.46
2023-03-06T04:29:01.741Z,59.68
2023-03-06T04:31:33.805Z,60.20
2023-03-06T04:34:09.899Z,60.08
2023-03-06T04:37:02.750Z,60.29
2023-03-06T04:39:59.720Z,60.64
2023-03-06T04:42:30.414Z,61.27
2023-03-06T04:45:14.225Z,60.43
2023-03-06T04:48:28.656Z,58.65
2023-03-06T04:51:07.112Z,57.97
2023-03-06T04:53:50.370Z,58.02
2023-03-06T04:56:34.707Z,58.33
2023-03-06T04:59:24.005Z,58.80
2023-03-06T05:01:59.238Z,59.48
2023-03-06T05:04:26.379Z,59.82
2023-03-06T05:06:54.000Z,60.13
2023-03-06T05:09:39.167Z,60.87
2023-03-06T05:12:07.840Z,61.75
2023-03-06T05:14:35.628Z,61.74
2023-03-06T05:17:06.648Z,60.53
2023-03-06T05:19:34.215Z,59.64
2023-03-06T05:22:11.582Z,59.63
2023-03-06T05:24:42.040Z,59.79
2023-03-06T05:27:09.354Z,59.62
2023-03-06T05:29:36.694Z,59.82
2023-03-06T05:32:16.251Z,60.67
2023-03-06T05:34:45.903Z,61.27
2023-03-06T05:37:13.161Z,61.75
2023-03-06T05:39:40.633Z,62.11
2023-03-06T05:42:08.500Z,62.27
2023-03-06T05:44:36.900Z,60.34
2023-03-06T05:47:10.100Z,59.66
2023-03-06T05:49:37.550Z,59.08
2023-03-06T05:52:07.242Z,59.21
2023-03-06T05:54:35.473Z,59.85
2023-03-06T05:57:04.407Z,60.31
2023-03-06T05:59:33.246Z,60.74
2023-03-06T06:02:06.857Z,60.63
2023-03-06T06:04:35.268Z,61.43
2023-03-06T06:07:03.533Z,62.03
2023-03-06T06:09:39.361Z,62.78
2023-03-06T06:12:06.832Z,61.49
2023-03-06T06:14:42.518Z,60.70
2023-03-06T06:17:12.505Z,60.60
2023-03-06T06:19:45.212Z,60.55
2023-03-06T06:22:12.471Z,61.01
2023-03-06T06:24:52.047Z,61.53
2023-03-06T06:27:22.381Z,62.16
2023-03-06T06:30:00.332Z,62.46
2023-03-06T06:32:27.567Z,62.99
2023-03-06T06:34:55.257Z,62.96
2023-03-06T06:37:22.513Z,60.95
2023-03-06T06:39:56.704Z,59.94
2023-03-06T06:42:40.307Z,59.77
2023-03-06T06:45:15.790Z,60.14
2023-03-06T06:47:46.438Z,60.53
2023-03-06T06:50:25.351Z,60.97
2023-03-06T06:52:58.953Z,61.45
2023-03-06T06:55:35.724Z,62.18
2023-03-06T06:58:05.616Z,61.91
2023-03-06T07:00:35.429Z,62.73
2023-03-06T07:03:10.504Z,62.77
2023-03-06T07:05:40.064Z,61.18
2023-03-06T07:08:16.535Z,60.07
2023-03-06T07:10:44.048Z,59.52
2023-03-06T07:13:28.034Z,59.90
2023-03-06T07:15:58.533Z,60.43
2023-03-06T07:18:25.767Z,61.22
2023-03-06T07:20:56.072Z,61.79
2023-03-06T07:23:23.530Z,61.91
2023-03-06T07:25:57.176Z,62.64
2023-03-06T07:28:28.186Z,62.17
2023-03-06T07:30:55.670Z,60.65
2023-03-06T07:33:23.171Z,60.06
2023-03-06T07:35:53.059Z,59.40
2023-03-06T07:38:23.029Z,59.60
2023-03-06T07:40:52.902Z,59.92
2023-03-06T07:43:20.804Z,60.61
2023-03-06T07:45:58.274Z,61.51
2023-03-06T07:48:26.388Z,61.10
2023-03-06T07:51:05.829Z,61.39
2023-03-06T07:53:37.440Z,60.51
2023-03-06T07:56:12.357Z,61.27
2023-03-06T07:58:48.440Z,61.77
2023-03-06T08:01:20.854Z,60.26
2023-03-06T08:03:50.773Z,59.62
2023-03-06T08:06:22.712Z,60.33
2023-03-06T08:08:55.329Z,61.11
2023-03-06T08:11:33.304Z,62.24
2023-03-06T08:14:04.980Z,63.38
2023-03-06T08:16:37.613Z,63.29
2023-03-06T08:19:05.142Z,64.41
2023-03-06T08:21:32.137Z,64.93
2023-03-06T08:24:06.276Z,62.62
2023-03-06T08:26:40.700Z,62.68
2023-03-06T08:29:22.436Z,62.51
2023-03-06T08:31:55.426Z,62.64
2023-03-06T08:34:26.255Z,62.89
2023-03-06T08:37:14.533Z,63.10
2023-03-06T08:39:41.874Z,64.08
2023-03-06T08:42:49.841Z,63.33
2023-03-06T08:45:17.108Z,61.40
2023-03-06T08:47:44.656Z,61.18
2023-03-06T08:50:22.265Z,61.24
2023-03-06T08:52:50.139Z,61.39
2023-03-06T08:55:24.814Z,61.77
2023-03-06T08:57:55.316Z,62.31
2023-03-06T09:00:27.088Z,62.97
2023-03-06T09:02:54.363Z,63.91
2023-03-06T09:05:30.794Z,63.55
2023-03-06T09:07:58.059Z,61.52
2023-03-06T09:10:28.715Z,61.20
2023-03-06T09:13:08.894Z,61.03
2023-03-06T09:15:56.711Z,61.00
2023-03-06T09:18:41.453Z,61.48
2023-03-06T09:21:09.073Z,62.13
2023-03-06T09:23:43.020Z,62.49
2023-03-06T09:26:13.620Z,62.58
2023-03-06T09:28:45.444Z,61.47
2023-03-06T09:31:18.556Z,58.21
2023-03-06T09:33:49.990Z,57.87
2023-03-06T09:36:21.314Z,56.78
2023-03-06T09:38:49.925Z,56.95
2023-03-06T09:41:28.253Z,56.62
2023-03-06T09:44:08.827Z,55.59
2023-03-06T09:46:58.035Z,57.16
2023-03-06T09:49:29.356Z,57.02
2023-03-06T09:52:18.363Z,56.93
2023-03-06T09:55:12.919Z,55.06
2023-03-06T09:58:07.501Z,55.77
2023-03-06T10:00:48.426Z,56.22
2023-03-06T10:03:32.484Z,54.89
2023-03-06T10:06:09.621Z,53.58
2023-03-06T10:08:54.772Z,53.25
2023-03-06T10:11:49.799Z,52.75
2023-03-06T10:14:41.086Z,51.97
2023-03-06T10:17:30.376Z,52.74
2023-03-06T10:20:00.593Z,52.37
2023-03-06T10:23:00.642Z,51.74
2023-03-06T10:26:02.070Z,51.97
2023-03-06T10:28:45.689Z,49.13
2023-03-06T10:31:31.460Z,49.15
2023-03-06T10:34:12.188Z,47.69
2023-03-06T10:36:59.155Z,47.45
2023-03-06T10:39:31.524Z,47.71
2023-03-06T10:41:58.807Z,47.41
2023-03-06T10:44:25.991Z,48.94
2023-03-06T10:46:56.462Z,48.61
2023-03-06T10:49:37.118Z,47.97
2023-03-06T10:52:05.730Z,46.92
2023-03-06T10:54:39.065Z,45.70
2023-03-06T10:57:31.098Z,45.11
2023-03-06T11:00:01.221Z,43.73
2023-03-06T11:02:33.985Z,42.53
2023-03-06T11:05:26.152Z,43.74
2023-03-06T11:08:21.108Z,42.45
2023-03-06T11:11:08.452Z,41.66
2023-03-06T11:13:42.346Z,40.70
2023-03-06T11:16:28.562Z,41.57
2023-03-06T11:19:10.429Z,40.91
2023-03-06T11:22:04.512Z,40.73
2023-03-06T11:24:42.604Z,39.52
2023-03-06T11:27:35.863Z,37.93
2023-03-06T11:30:48.959Z,37.91
2023-03-06T11:33:50.297Z,40.14
2023-03-06T11:36:50.037Z,39.89
2023-03-06T11:39:54.783Z,40.60
2023-03-06T11:42:29.795Z,41.65
2023-03-06T11:45:27.171Z,41.58
2023-03-06T11:48:15.560Z,42.15
2023-03-06T11:50:54.844Z,43.58
2023-03-06T11:53:40.739Z,44.21
2023-03-06T11:56:19.690Z,44.56
2023-03-06T11:58:52.231Z,45.08
2023-03-06T12:01:54.059Z,45.58
2023-03-06T12:04:45.021Z,46.83
2023-03-06T12:07:32.473Z,46.79
2023-03-06T12:10:23.419Z,46.47
2023-03-06T12:13:20.242Z,46.31
2023-03-06T12:16:23.155Z,45.54
2023-03-06T12:19:01.464Z,45.28
2023-03-06T12:21:32.212Z,46.60
2023-03-06T12:24:37.032Z,46.37
2023-03-06T12:27:31.724Z,46.36
2023-03-06T12:30:11.248Z,47.05
2023-03-06T12:33:03.963Z,46.40
2023-03-06T12:36:02.782Z,46.26
2023-03-06T12:38:39.926Z,46.03
2023-03-06T12:41:08.806Z,45.92
2023-03-06T12:43:45.784Z,44.72
2023-03-06T12:46:23.223Z,44.50
2023-03-06T12:49:31.484Z,45.08
2023-03-06T12:52:01.761Z,45.28
2023-03-06T12:54:30.327Z,45.42
2023-03-06T12:56:57.574Z,45.53
2023-03-06T12:59:44.700Z,45.63
2023-03-06T13:02:17.786Z,46.06
2023-03-06T13:04:56.477Z,45.46
2023-03-06T13:07:47.872Z,46.42
2023-03-06T13:10:38.650Z,46.37
2023-03-06T13:13:25.755Z,46.62
2023-03-06T13:16:18.582Z,45.77
2023-03-06T13:19:02.529Z,46.22
2023-03-06T13:21:41.824Z,46.12
2023-03-06T13:24:37.764Z,46.69
2023-03-06T13:27:13.574Z,47.25
2023-03-06T13:29:48.737Z,46.48
2023-03-06T13:32:19.700Z,45.31
2023-03-06T13:34:51.737Z,44.08
2023-03-06T13:37:20.433Z,44.66
2023-03-06T13:40:10.390Z,43.70
2023-03-06T13:43:00.059Z,43.77
2023-03-06T13:45:31.694Z,43.78
2023-03-06T13:48:21.403Z,43.28
2023-03-06T13:50:49.582Z,44.28
2023-03-06T13:53:41.246Z,44.60
2023-03-06T13:56:26.414Z,44.68
2023-03-06T13:59:14.230Z,44.93
2023-03-06T14:01:52.956Z,43.85
2023-03-06T14:04:57.835Z,44.53
2023-03-06T14:07:33.515Z,43.50
2023-03-06T14:10:20.701Z,43.88
2023-03-06T14:12:50.797Z,42.63
2023-03-06T14:15:25.364Z,43.52
2023-03-06T14:18:28.414Z,42.25
2023-03-06T14:20:59.614Z,41.90
2023-03-06T14:23:30.250Z,42.31
2023-03-06T14:26:08.922Z,42.56
2023-03-06T14:28:37.025Z,42.56
2023-03-06T14:31:19.473Z,42.35
2023-03-06T14:33:54.452Z,43.32
2023-03-06T14:36:22.969Z,42.79
2023-03-06T14:38:54.442Z,42.97
2023-03-06T14:41:27.086Z,43.34
2023-03-06T14:44:18.021Z,44.45
2023-03-06T14:46:52.045Z,44.59
2023-03-06T14:49:20.345Z,44.83
2023-03-06T14:52:14.992Z,45.15
2023-03-06T14:54:52.235Z,45.86
2023-03-06T14:57:22.436Z,45.63
2023-03-06T15:00:02.181Z,46.00
2023-03-06T15:02:38.937Z,45.85
2023-03-06T15:05:28.142Z,46.73
2023-03-06T15:07:58.133Z,47.10
2023-03-06T15:10:27.376Z,47.10
2023-03-06T15:13:23.532Z,47.62
2023-03-06T15:16:22.565Z,48.10
2023-03-06T15:19:01.329Z,48.07
2023-03-06T15:21:32.336Z,48.54
2023-03-06T15:23:59.731Z,48.66
2023-03-06T15:26:37.138Z,48.75
2023-03-06T15:29:13.855Z,49.13
2023-03-06T15:31:44.700Z,49.50
2023-03-06T15:34:32.476Z,49.33
2023-03-06T15:36:59.899Z,49.65
2023-03-06T15:39:34.924Z,49.75
2023-03-06T15:42:08.179Z,49.90
2023-03-06T15:44:38.507Z,50.17
2023-03-06T15:47:09.506Z,50.45
2023-03-06T15:49:39.538Z,50.60
2023-03-06T15:52:07.540Z,50.69
2023-03-06T15:54:35.618Z,50.64
2023-03-06T15:57:06.449Z,50.66
2023-03-06T15:59:41.472Z,50.97
2023-03-06T16:02:28.435Z,51.55
2023-03-06T16:04:55.336Z,52.37
2023-03-06T16:07:22.620Z,52.83
2023-03-06T16:09:50.093Z,53.13
2023-03-06T16:12:19.059Z,53.24
2023-03-06T16:14:50.186Z,53.61
2023-03-06T16:17:23.634Z,54.15
2023-03-06T16:19:51.556Z,53.90
2023-03-06T16:22:18.980Z,54.03
2023-03-06T16:24:46.105Z,54.19
2023-03-06T16:27:22.857Z,54.76
2023-03-06T16:29:54.596Z,54.73
2023-03-06T16:32:22.052Z,54.64
2023-03-06T16:34:49.119Z,54.73
2023-03-06T16:37:16.601Z,54.98
2023-03-06T16:39:51.218Z,55.27
2023-03-06T16:42:19.393Z,55.32
2023-03-06T16:44:46.918Z,55.65
2023-03-06T16:47:19.745Z,55.89
2023-03-06T16:49:52.073Z,55.83
2023-03-06T16:52:19.439Z,56.21
2023-03-06T16:54:56.237Z,56.41
2023-03-06T16:57:28.416Z,56.47
2023-03-06T17:00:03.984Z,56.49
2023-03-06T17:02:34.061Z,56.40
2023-03-06T17:05:07.258Z,56.51
2023-03-06T17:07:36.038Z,56.57
2023-03-06T17:10:05.104Z,56.74
2023-03-06T17:12:32.520Z,56.53
2023-03-06T17:14:59.508Z,56.25
2023-03-06T17:17:27.093Z,56.77
2023-03-06T17:19:56.642Z,56.35
2023-03-06T17:22:23.863Z,55.59
2023-03-06T17:24:52.230Z,55.11
2023-03-06T17:27:22.368Z,54.78
2023-03-06T17:29:57.938Z,54.14
2023-03-06T17:32:27.349Z,53.64
2023-03-06T17:34:57.542Z,53.00
2023-03-06T17:37:27.714Z,52.63
2023-03-06T17:39:55.187Z,51.89
2023-03-06T17:42:22.433Z,52.16
2023-03-06T17:44:51.075Z,51.61
2023-03-06T17:47:20.974Z,51.37
2023-03-06T17:49:48.110Z,51.21
2023-03-06T17:52:15.698Z,50.96
2023-03-06T17:54:43.109Z,50.66
2023-03-06T17:57:12.597Z,50.09
2023-03-06T17:59:40.235Z,50.09
2023-03-06T18:02:11.410Z,49.96
2023-03-06T18:04:42.449Z,49.79
2023-03-06T18:07:19.871Z,50.07
2023-03-06T18:09:47.328Z,49.79
2023-03-06T18:12:16.907Z,49.90
2023-03-06T18:14:44.541Z,49.98
2023-03-06T18:17:12.135Z,49.96
2023-03-06T18:19:41.297Z,50.08
2023-03-06T18:22:11.682Z,50.12
2023-03-06T18:24:38.947Z,49.89
2023-03-06T18:27:06.579Z,50.14
2023-03-06T18:29:34.644Z,50.10
2023-03-06T18:32:02.471Z,50.00
2023-03-06T18:34:37.692Z,50.06
2023-03-06T18:37:04.987Z,49.97
2023-03-06T18:39:32.750Z,49.90
2023-03-06T18:42:07.006Z,49.86
2023-03-06T18:44:41.920Z,49.99
2023-03-06T18:47:17.138Z,49.76
2023-03-06T18:49:45.988Z,49.76
2023-03-06T18:52:20.383Z,49.94
2023-03-06T18:54:51.637Z,50.18
2023-03-06T18:57:28.723Z,50.98
2023-03-06T19:00:37.321Z,52.59
2023-03-06T19:03:19.452Z,53.69
2023-03-06T19:05:50.444Z,53.73
2023-03-06T19:08:17.873Z,54.17
2023-03-06T19:10:50.607Z,53.86
2023-03-06T19:13:22.194Z,54.15
2023-03-06T19:15:49.365Z,54.16
2023-03-06T19:18:22.313Z,54.22
2023-03-06T19:20:49.617Z,54.36
2023-03-06T19:23:16.916Z,54.14
2023-03-06T19:25:43.889Z,54.45
2023-03-06T19:28:11.639Z,54.66
2023-03-06T19:30:41.920Z,54.66
2023-03-06T19:33:15.664Z,54.77
2023-03-06T19:35:42.974Z,54.77
2023-03-06T19:38:10.503Z,55.96
2023-03-06T19:40:38.118Z,55.97
2023-03-06T19:43:07.770Z,56.42
2023-03-06T19:45:36.724Z,58.76
2023-03-06T19:48:05.984Z,58.03
2023-03-06T19:50:37.069Z,56.77
2023-03-06T19:53:04.595Z,55.20
2023-03-06T19:55:31.842Z,54.84
2023-03-06T19:58:00.044Z,55.03
2023-03-06T20:00:27.630Z,55.31
2023-03-06T20:02:55.661Z,55.49
2023-03-06T20:05:23.195Z,56.15
2023-03-06T20:07:50.401Z,56.57
2023-03-06T20:10:18.130Z,57.38
2023-03-06T20:12:46.780Z,58.50
2023-03-06T20:15:18.990Z,58.46
2023-03-06T20:17:58.944Z,58.65
2023-03-06T20:20:28.057Z,59.18
2023-03-06T20:23:06.195Z,59.07
2023-03-06T20:25:36.502Z,57.76
2023-03-06T20:28:04.770Z,56.87
2023-03-06T20:30:43.244Z,56.84
2023-03-06T20:33:10.985Z,57.52
2023-03-06T20:35:42.747Z,57.85
2023-03-06T20:38:13.670Z,58.36
2023-03-06T20:40:46.587Z,58.16
2023-03-06T20:43:17.495Z,58.57
2023-03-06T20:45:58.601Z,59.20
2023-03-06T20:48:26.014Z,60.45
2023-03-06T20:51:31.551Z,60.22
2023-03-06T20:54:04.304Z,58.77
2023-03-06T20:56:40.107Z,58.43
2023-03-06T20:59:11.927Z,58.52
2023-03-06T21:01:43.108Z,58.54
2023-03-06T21:04:13.775Z,59.03
2023-03-06T21:06:42.578Z,59.37
2023-03-06T21:09:15.885Z,59.91
2023-03-06T21:11:44.882Z,59.39
2023-03-06T21:14:15.758Z,58.98
2023-03-06T21:16:50.665Z,59.01
2023-03-06T21:19:27.045Z,58.96
2023-03-06T21:22:00.033Z,59.13
2023-03-06T21:24:33.795Z,59.49
2023-03-06T21:27:04.342Z,57.60
2023-03-06T21:29:31.607Z,57.00
2023-03-06T21:32:03.534Z,56.41
2023-03-06T21:34:34.941Z,58.02
2023-03-06T21:37:05.053Z,59.71
2023-03-06T21:39:47.526Z,58.59
2023-03-06T21:42:17.974Z,59.46
2023-03-06T21:44:48.936Z,59.64
2023-03-06T21:47:21.751Z,60.82
2023-03-06T21:49:52.441Z,61.39
2023-03-06T21:52:26.556Z,61.20
2023-03-06T21:55:04.964Z,58.96
2023-03-06T21:57:41.123Z,58.30
2023-03-06T22:00:18.389Z,58.82
2023-03-06T22:02:48.855Z,58.72
2023-03-06T22:05:21.914Z,58.94
2023-03-06T22:07:54.950Z,59.40
2023-03-06T22:10:56.878Z,60.71
2023-03-06T22:14:45.028Z,61.10
2023-03-06T22:18:15.966Z,62.61
2023-03-06T22:21:52.697Z,60.19
2023-03-06T22:24:32.375Z,58.91
2023-03-06T22:27:07.813Z,59.50
2023-03-06T22:29:41.208Z,60.68
2023-03-06T22:32:17.109Z,61.24
2023-03-06T22:34:48.030Z,61.82
2023-03-06T22:37:40.540Z,62.60
2023-03-06T22:40:15.825Z,63.52
2023-03-06T22:42:59.724Z,63.50
2023-03-06T22:45:34.604Z,62.20
2023-03-06T22:48:11.383Z,61.23
2023-03-06T22:50:38.892Z,61.82
2023-03-06T22:53:06.570Z,62.34
2023-03-06T22:55:37.592Z,62.97
2023-03-06T22:58:08.025Z,65.93
2023-03-06T23:00:35.487Z,65.22
2023-03-06T23:03:05.883Z,64.86
2023-03-06T23:05:44.316Z,63.24
2023-03-06T23:08:12.276Z,62.36
2023-03-06T23:10:39.746Z,61.86
2023-03-06T23:13:30.349Z,63.30
2023-03-06T23:16:22.675Z,65.11
2023-03-06T23:19:09.121Z,67.16
2023-03-06T23:22:05.518Z,66.46
2023-03-06T23:24:53.853Z,64.96
2023-03-06T23:27:24.084Z,64.66
2023-03-06T23:29:59.040Z,65.46
2023-03-06T23:32:27.272Z,65.18
2023-03-06T23:34:54.845Z,65.17
2023-03-06T23:37:31.112Z,65.82
2023-03-06T23:40:07.823Z,65.56
2023-03-06T23:42:40.605Z,65.22
2023-03-06T23:45:09.041Z,66.04
2023-03-06T23:47:39.757Z,66.54
2023-03-06T23:50:07.982Z,67.00
2023-03-06T23:52:38.306Z,68.04
2023-03-06T23:55:09.191Z,68.90
2023-03-06T23:57:36.707Z,68.60
